createdAt,value
2022-12-11T00:00:49.348Z,78.05
2022-12-11T00:03:18.191Z,85.30
2022-12-11T00:05:45.790Z,89.40
2022-12-11T00:08:13.618Z,91.25
2022-12-11T00:10:47.020Z,95.22
2022-12-11T00:13:13.746Z,100.53
2022-12-11T00:15:40.522Z,100.20
2022-12-11T00:18:12.106Z,88.43
2022-12-11T00:20:38.774Z,79.97
2022-12-11T00:23:05.486Z,81.90
2022-12-11T00:25:32.206Z,89.13
2022-12-11T00:27:58.979Z,92.70
2022-12-11T00:30:25.730Z,93.28
2022-12-11T00:32:52.706Z,84.72
2022-12-11T00:35:19.429Z,93.65
2022-12-11T00:37:46.096Z,98.40
2022-12-11T00:40:12.839Z,87.10
2022-12-11T00:42:39.493Z,100.05
2022-12-11T00:45:06.589Z,94.00
2022-12-11T00:47:33.291Z,110.18
2022-12-11T00:50:00.083Z,100.72
2022-12-11T00:52:26.795Z,104.45
2022-12-11T00:54:53.444Z,100.95
2022-12-11T00:57:20.093Z,94.95
2022-12-11T00:59:46.806Z,87.75
2022-12-11T01:02:13.570Z,100.80
2022-12-11T01:04:40.221Z,105.95
2022-12-11T01:07:06.934Z,108.32
2022-12-11T01:09:52.350Z,88.45
2022-12-11T01:12:19.079Z,98.50
2022-12-11T01:14:46.108Z,85.38
2022-12-11T01:17:12.798Z,93.70
2022-12-11T01:19:39.512Z,89.72
2022-12-11T01:22:06.262Z,103.10
2022-12-11T01:24:33.506Z,109.95
2022-12-11T01:27:00.218Z,111.68
2022-12-11T01:29:26.957Z,101.57
2022-12-11T01:31:53.663Z,112.57
2022-12-11T01:34:20.422Z,111.35
2022-12-11T01:36:47.131Z,113.65
2022-12-11T01:39:13.854Z,122.38
2022-12-11T01:41:40.577Z,110.53
2022-12-11T01:44:16.188Z,114.30
2022-12-11T01:46:43.369Z,101.30
2022-12-11T01:49:13.770Z,128.77
2022-12-11T01:51:49.420Z,115.15
2022-12-11T01:54:18.430Z,115.75
2022-12-11T01:56:48.214Z,105.68
2022-12-11T01:59:18.109Z,105.25
2022-12-11T02:01:58.302Z,102.20
2022-12-11T02:04:25.808Z,90.45
2022-12-11T02:06:53.304Z,90.38
2022-12-11T02:09:25.340Z,100.65
2022-12-11T02:12:31.588Z,111.55
2022-12-11T02:15:19.610Z,87.15
2022-12-11T02:17:54.963Z,98.10
2022-12-11T02:20:21.691Z,101.25
2022-12-11T02:23:03.274Z,101.28
2022-12-11T02:25:46.780Z,102.05
2022-12-11T02:28:33.579Z,88.28
2022-12-11T02:31:13.701Z,99.03
2022-12-11T02:34:04.687Z,88.55
2022-12-11T02:36:40.811Z,91.20
2022-12-11T02:39:12.724Z,86.13
2022-12-11T02:41:44.618Z,83.53
2022-12-11T02:44:14.856Z,88.03
2022-12-11T02:46:42.945Z,83.85
2022-12-11T02:49:11.708Z,69.88
2022-12-11T02:51:41.115Z,77.50
2022-12-11T02:54:17.956Z,92.50
2022-12-11T02:56:53.723Z,77.95
2022-12-11T02:59:42.807Z,86.18
2022-12-11T03:02:11.962Z,80.30
2022-12-11T03:04:39.385Z,86.50
2022-12-11T03:07:15.063Z,77.40
2022-12-11T03:09:47.814Z,75.32
2022-12-11T03:14:48.827Z,77.03
2022-12-11T03:17:19.614Z,77.80
2022-12-11T03:20:00.739Z,71.13
2022-12-11T03:22:38.928Z,67.60
2022-12-11T03:25:20.603Z,64.13
2022-12-11T03:27:58.065Z,78.65
2022-12-11T03:30:28.546Z,64.07
2022-12-11T03:33:02.093Z,61.33
2022-12-11T03:35:33.041Z,67.40
2022-12-11T03:38:08.774Z,68.60
2022-12-11T03:40:37.749Z,73.28
2022-12-11T03:43:06.260Z,66.60
2022-12-11T03:45:34.282Z,70.07
2022-12-11T03:48:02.788Z,62.25
2022-12-11T03:50:32.441Z,65.13
2022-12-11T03:53:01.430Z,52.80
2022-12-11T03:55:29.577Z,54.53
2022-12-11T03:57:56.577Z,51.55
2022-12-11T04:00:23.358Z,56.05
2022-12-11T04:03:13.576Z,56.35
2022-12-11T04:05:46.730Z,47.33
2022-12-11T04:08:13.519Z,50.05
2022-12-11T04:10:40.974Z,54.25
2022-12-11T04:13:08.762Z,46.95
2022-12-11T04:15:36.400Z,39.53
2022-12-11T04:18:21.816Z,33.22
2022-12-11T04:21:07.954Z,36.60
2022-12-11T04:23:53.370Z,35.60
2022-12-11T04:26:21.014Z,37.40
2022-12-11T04:28:48.551Z,33.83
2022-12-11T04:31:18.074Z,37.38
2022-12-11T04:33:44.809Z,31.05
2022-12-11T04:36:11.968Z,34.42
2022-12-11T04:38:38.695Z,35.15
2022-12-11T04:41:09.397Z,35.63
2022-12-11T04:43:36.427Z,36.30
2022-12-11T04:46:04.541Z,37.67
2022-12-11T04:48:31.364Z,34.40
2022-12-11T04:50:58.323Z,40.95
2022-12-11T04:53:25.380Z,38.15
2022-12-11T04:55:52.353Z,33.15
2022-12-11T04:58:19.063Z,35.13
2022-12-11T05:00:45.806Z,33.03
2022-12-11T05:03:12.892Z,34.10
2022-12-11T05:05:39.644Z,35.38
2022-12-11T05:08:06.387Z,32.22
2022-12-11T05:10:33.186Z,36.25
2022-12-11T05:12:59.875Z,36.45
2022-12-11T05:15:26.530Z,35.25
2022-12-11T05:17:53.922Z,32.47
2022-12-11T05:20:20.644Z,34.78
2022-12-11T05:22:47.403Z,33.92
2022-12-11T05:25:14.240Z,32.15
2022-12-11T05:27:40.948Z,32.08
2022-12-11T05:30:08.500Z,34.95
2022-12-11T05:32:35.185Z,36.53
2022-12-11T05:35:01.865Z,29.83
2022-12-11T05:37:28.653Z,37.20
2022-12-11T05:39:55.365Z,35.90
2022-12-11T05:42:27.133Z,34.00
2022-12-11T05:44:55.561Z,30.95
2022-12-11T05:47:22.237Z,33.67
2022-12-11T05:49:48.938Z,34.35
2022-12-11T05:52:16.661Z,34.15
2022-12-11T05:54:43.461Z,37.75
2022-12-11T05:57:10.194Z,35.25
2022-12-11T05:59:36.897Z,37.40
2022-12-11T06:02:03.739Z,39.17
2022-12-11T06:04:30.534Z,37.40
2022-12-11T06:06:57.262Z,42.58
2022-12-11T06:09:23.934Z,39.58
2022-12-11T06:11:50.604Z,40.08
2022-12-11T06:14:17.337Z,42.90
2022-12-11T06:16:44.074Z,36.65
2022-12-11T06:19:18.438Z,42.20
2022-12-11T06:21:45.910Z,43.03
2022-12-11T06:24:12.771Z,42.20
2022-12-11T06:26:39.505Z,37.72
2022-12-11T06:29:09.243Z,41.45
2022-12-11T06:31:39.621Z,38.55
2022-12-11T06:34:06.419Z,43.53
2022-12-11T06:36:33.187Z,37.03
2022-12-11T06:38:59.910Z,42.15
2022-12-11T06:41:26.693Z,42.72
2022-12-11T06:43:53.428Z,42.20
2022-12-11T06:46:20.787Z,44.17
2022-12-11T06:48:48.525Z,39.15
2022-12-11T06:51:18.211Z,47.17
2022-12-11T06:53:45.436Z,43.95
2022-12-11T06:56:14.748Z,43.00
2022-12-11T06:58:42.371Z,46.03
2022-12-11T07:01:16.401Z,45.35
2022-12-11T07:03:43.431Z,43.40
2022-12-11T07:06:10.653Z,41.15
2022-12-11T07:08:37.642Z,45.55
2022-12-11T07:11:10.058Z,43.17
2022-12-11T07:13:37.371Z,43.55
2022-12-11T07:16:05.693Z,40.05
2022-12-11T07:18:32.689Z,43.20
2022-12-11T07:21:02.759Z,40.05
2022-12-11T07:23:29.538Z,41.30
2022-12-11T07:25:56.918Z,38.03
2022-12-11T07:28:24.321Z,34.30
2022-12-11T07:30:51.083Z,37.45
2022-12-11T07:33:17.773Z,36.55
2022-12-11T07:35:45.069Z,36.83
2022-12-11T07:38:11.785Z,33.72
2022-12-11T07:40:38.504Z,38.35
2022-12-11T07:43:06.392Z,37.85
2022-12-11T07:45:33.138Z,39.88
2022-12-11T07:47:59.969Z,42.05
2022-12-11T07:50:26.687Z,41.92
2022-12-11T07:52:53.465Z,41.33
2022-12-11T07:55:20.335Z,37.72
2022-12-11T07:57:47.050Z,41.80
2022-12-11T08:00:14.154Z,44.63
2022-12-11T08:02:41.234Z,40.45
2022-12-11T08:05:08.963Z,41.50
2022-12-11T08:07:36.041Z,42.97
2022-12-11T08:10:03.847Z,43.53
2022-12-11T08:12:30.631Z,39.30
2022-12-11T08:14:57.355Z,38.67
2022-12-11T08:17:29.075Z,37.65
2022-12-11T08:19:57.594Z,41.58
2022-12-11T08:22:24.314Z,36.25
2022-12-11T08:24:51.189Z,41.95
2022-12-11T08:27:17.922Z,39.70
2022-12-11T08:29:47.406Z,38.42
2022-12-11T08:32:16.684Z,34.50
2022-12-11T08:34:43.457Z,36.17
2022-12-11T08:37:10.138Z,38.47
2022-12-11T08:39:36.931Z,30.95
2022-12-11T08:42:03.746Z,37.03
2022-12-11T08:44:30.522Z,37.08
2022-12-11T08:46:57.310Z,36.03
2022-12-11T08:49:24.182Z,38.28
2022-12-11T08:51:50.842Z,35.10
2022-12-11T08:54:17.555Z,37.28
2022-12-11T08:56:44.392Z,35.30
2022-12-11T08:59:11.206Z,29.13
2022-12-11T09:01:38.126Z,34.95
2022-12-11T09:04:04.959Z,34.55
2022-12-11T09:06:32.964Z,37.13
2022-12-11T09:09:01.123Z,32.38
2022-12-11T09:11:30.959Z,34.53
2022-12-11T09:14:02.144Z,33.85
2022-12-11T09:16:32.464Z,33.38
2022-12-11T09:19:00.488Z,32.55
2022-12-11T09:21:29.423Z,32.85
2022-12-11T09:23:58.885Z,35.80
2022-12-11T09:26:26.505Z,32.42
2022-12-11T09:28:53.851Z,34.85
2022-12-11T09:31:32.509Z,36.70
2022-12-11T09:34:02.168Z,35.92
2022-12-11T09:36:29.555Z,37.03
2022-12-11T09:38:59.667Z,34.22
2022-12-11T09:41:52.859Z,34.20
2022-12-11T09:46:50.139Z,36.70
2022-12-11T09:49:26.417Z,35.88
2022-12-11T09:52:06.584Z,39.22
2022-12-11T09:54:33.794Z,38.22
2022-12-11T09:57:05.079Z,30.00
2022-12-11T10:00:04.835Z,34.03
2022-12-11T10:02:47.411Z,35.20
2022-12-11T10:05:33.346Z,34.85
2022-12-11T10:08:24.783Z,39.30
2022-12-11T10:10:54.292Z,61.20
2022-12-11T10:13:33.055Z,119.05
2022-12-11T10:16:03.886Z,62.10
2022-12-11T10:18:32.500Z,43.53
2022-12-11T10:21:02.189Z,35.35
2022-12-11T10:23:51.005Z,33.47
2022-12-11T10:26:20.389Z,35.30
2022-12-11T10:28:47.499Z,32.08
2022-12-11T10:31:18.121Z,32.45
2022-12-11T10:34:13.074Z,33.97
2022-12-11T10:36:41.916Z,30.35
2022-12-11T10:39:22.214Z,36.53
2022-12-11T10:41:51.785Z,32.17
2022-12-11T10:44:21.568Z,28.73
2022-12-11T10:47:01.777Z,29.08
2022-12-11T10:49:30.951Z,29.58
2022-12-11T10:52:01.326Z,31.48
2022-12-11T10:54:41.042Z,30.08
2022-12-11T10:57:10.229Z,30.92
2022-12-11T10:59:49.897Z,32.88
2022-12-11T11:02:19.763Z,31.70
2022-12-11T11:04:46.799Z,29.48
2022-12-11T11:07:21.831Z,28.27
2022-12-11T11:09:49.124Z,23.45
2022-12-11T11:12:19.032Z,25.50
2022-12-11T11:14:45.859Z,25.58
2022-12-11T11:17:17.668Z,28.05
2022-12-11T11:19:48.205Z,27.17
2022-12-11T11:22:17.954Z,30.05
2022-12-11T11:24:55.760Z,27.88
2022-12-11T11:27:36.364Z,23.67
2022-12-11T11:30:16.679Z,27.70
2022-12-11T11:32:43.484Z,24.90
2022-12-11T11:35:13.226Z,25.58
2022-12-11T11:37:44.694Z,23.88
2022-12-11T11:40:31.020Z,21.58
2022-12-11T11:43:19.629Z,26.08
2022-12-11T11:46:01.951Z,27.73
2022-12-11T11:48:46.761Z,25.88
2022-12-11T11:51:21.066Z,27.45
2022-12-11T11:53:51.050Z,29.25
2022-12-11T11:56:22.546Z,28.60
2022-12-11T11:59:02.271Z,30.77
2022-12-11T12:01:30.042Z,39.50
2022-12-11T12:03:56.966Z,25.20
2022-12-11T12:06:47.446Z,26.65
2022-12-11T12:09:45.080Z,40.60
2022-12-11T12:12:34.031Z,55.53
2022-12-11T12:15:29.139Z,48.75
2022-12-11T12:18:18.100Z,31.02
2022-12-11T12:20:57.932Z,35.92
2022-12-11T12:23:40.804Z,34.47
2022-12-11T12:26:29.570Z,32.30
2022-12-11T12:29:28.522Z,31.98
2022-12-11T12:32:36.719Z,30.00
2022-12-11T12:35:32.879Z,25.08
2022-12-11T12:38:18.452Z,26.90
2022-12-11T12:40:48.069Z,28.95
2022-12-11T12:43:33.808Z,26.08
2022-12-11T12:46:25.123Z,25.85
2022-12-11T12:48:54.294Z,28.73
2022-12-11T12:51:21.962Z,27.60
2022-12-11T12:53:55.602Z,28.50
2022-12-11T12:56:24.794Z,33.33
2022-12-11T12:58:51.759Z,40.92
2022-12-11T13:01:25.748Z,39.50
2022-12-11T13:03:59.301Z,34.05
2022-12-11T13:06:42.700Z,33.17
2022-12-11T13:09:19.560Z,37.38
2022-12-11T13:11:50.117Z,30.85
2022-12-11T13:14:16.791Z,31.55
2022-12-11T13:16:45.609Z,32.88
2022-12-11T13:19:25.391Z,35.80
2022-12-11T13:22:17.044Z,32.83
2022-12-11T13:25:17.673Z,37.45
2022-12-11T13:27:44.468Z,37.50
2022-12-11T13:30:14.235Z,38.72
2022-12-11T13:33:04.294Z,40.45
2022-12-11T13:35:32.738Z,35.00
2022-12-11T13:38:18.391Z,46.03
2022-12-11T13:40:46.939Z,45.22
2022-12-11T13:43:20.612Z,48.85
2022-12-11T13:45:50.725Z,41.63
2022-12-11T13:48:33.360Z,41.63
2022-12-11T13:51:01.327Z,42.13
2022-12-11T13:53:28.302Z,44.08
2022-12-11T13:56:06.946Z,46.42
2022-12-11T13:58:37.858Z,47.58
2022-12-11T14:01:18.062Z,40.38
2022-12-11T14:03:54.726Z,44.40
2022-12-11T14:06:22.345Z,47.92
2022-12-11T14:08:53.403Z,48.78
2022-12-11T14:11:27.858Z,53.45
2022-12-11T14:13:57.778Z,48.70
2022-12-11T14:16:26.665Z,41.90
2022-12-11T14:18:56.089Z,46.33
2022-12-11T14:21:25.622Z,51.42
2022-12-11T14:23:54.749Z,47.50
2022-12-11T14:26:34.243Z,49.90
2022-12-11T14:29:02.645Z,41.65
2022-12-11T14:31:34.803Z,54.30
2022-12-11T14:34:07.985Z,42.08
2022-12-11T14:36:36.358Z,51.45
2022-12-11T14:39:11.141Z,44.63
2022-12-11T14:41:49.530Z,40.35
2022-12-11T14:44:18.524Z,41.10
2022-12-11T14:46:48.366Z,41.03
2022-12-11T14:49:27.054Z,40.65
2022-12-11T14:51:57.179Z,44.92
2022-12-11T14:54:33.502Z,37.40
2022-12-11T14:57:06.180Z,35.33
2022-12-11T15:02:22.702Z,39.10
2022-12-11T15:05:11.268Z,41.67
2022-12-11T15:07:38.970Z,41.47
2022-12-11T15:10:07.131Z,36.70
2022-12-11T15:12:34.215Z,36.30
2022-12-11T15:15:05.884Z,37.70
2022-12-11T15:17:34.745Z,45.40
2022-12-11T15:20:20.933Z,40.58
2022-12-11T15:22:47.758Z,42.63
2022-12-11T15:25:23.193Z,44.22
2022-12-11T15:27:53.112Z,43.15
2022-12-11T15:30:20.108Z,41.83
2022-12-11T15:32:47.001Z,42.53
2022-12-11T15:35:23.583Z,44.08
2022-12-11T15:37:55.594Z,49.10
2022-12-11T15:40:22.504Z,41.28
2022-12-11T15:42:50.347Z,43.65
2022-12-11T15:45:23.458Z,42.33
2022-12-11T15:47:51.030Z,42.63
2022-12-11T15:50:23.728Z,45.92
2022-12-11T15:55:19.434Z,43.78
2022-12-11T15:57:53.158Z,39.63
2022-12-11T16:00:20.430Z,42.08
2022-12-11T16:02:48.053Z,41.30
2022-12-11T16:05:15.123Z,38.13
2022-12-11T16:07:42.382Z,38.85
2022-12-11T16:10:17.482Z,62.08
2022-12-11T16:12:44.821Z,47.03
2022-12-11T16:15:15.316Z,51.90
2022-12-11T16:20:13.258Z,36.75
2022-12-11T16:22:40.763Z,36.33
2022-12-11T16:25:07.959Z,38.20
2022-12-11T16:27:34.936Z,32.25
2022-12-11T16:30:01.708Z,36.15
2022-12-11T16:32:28.359Z,35.80
2022-12-11T16:34:57.735Z,33.97
2022-12-11T16:37:24.429Z,37.17
2022-12-11T16:39:51.101Z,36.30
2022-12-11T16:42:17.828Z,40.60
2022-12-11T16:44:44.639Z,34.92
2022-12-11T16:47:11.673Z,38.38
2022-12-11T16:49:38.391Z,42.60
2022-12-11T16:52:05.159Z,34.80
2022-12-11T16:54:31.883Z,37.65
2022-12-11T16:56:58.570Z,41.40
2022-12-11T16:59:25.243Z,36.85
2022-12-11T17:01:52.199Z,34.72
2022-12-11T17:04:18.984Z,33.60
2022-12-11T17:06:46.291Z,37.95
2022-12-11T17:09:12.956Z,34.25
2022-12-11T17:11:39.605Z,37.05
2022-12-11T17:14:06.310Z,38.97
2022-12-11T17:16:33.982Z,29.88
2022-12-11T17:19:00.759Z,46.17
2022-12-11T17:21:27.538Z,31.95
2022-12-11T17:23:54.245Z,29.88
2022-12-11T17:26:21.007Z,30.35
2022-12-11T17:28:47.772Z,29.83
2022-12-11T17:31:17.648Z,32.28
2022-12-11T17:33:45.791Z,31.77
2022-12-11T17:36:18.206Z,31.95
2022-12-11T17:38:44.955Z,32.38
2022-12-11T17:41:18.527Z,30.63
2022-12-11T17:43:51.460Z,35.38
2022-12-11T17:46:19.804Z,34.47
2022-12-11T17:48:47.265Z,41.53
2022-12-11T17:51:20.966Z,38.67
2022-12-11T17:53:47.881Z,46.35
2022-12-11T17:56:14.679Z,32.35
2022-12-11T17:58:42.035Z,35.03
2022-12-11T18:01:10.236Z,31.60
2022-12-11T18:03:38.308Z,31.35
2022-12-11T18:06:14.558Z,33.95
2022-12-11T18:08:41.668Z,33.58
2022-12-11T18:11:14.728Z,33.63
2022-12-11T18:13:42.735Z,32.80
2022-12-11T18:16:24.362Z,31.42
2022-12-11T18:18:52.080Z,27.83
2022-12-11T18:21:22.022Z,29.05
2022-12-11T18:23:50.407Z,29.63
2022-12-11T18:26:18.733Z,31.25
2022-12-11T18:28:46.405Z,26.60
2022-12-11T18:31:13.708Z,25.80
2022-12-11T18:33:42.349Z,24.88
2022-12-11T18:36:09.913Z,21.88
2022-12-11T18:38:38.968Z,22.90
2022-12-11T18:41:07.149Z,21.30
2022-12-11T18:43:34.010Z,22.77
2022-12-11T18:46:09.120Z,21.27
2022-12-11T18:48:36.436Z,20.67
2022-12-11T18:51:10.313Z,20.30
2022-12-11T18:53:39.435Z,21.65
2022-12-11T18:56:12.305Z,24.45
2022-12-11T18:58:39.047Z,53.45
2022-12-11T19:01:11.183Z,37.53
2022-12-11T19:03:38.966Z,25.00
2022-12-11T19:06:17.418Z,24.85
2022-12-11T19:08:44.459Z,23.35
2022-12-11T19:11:19.172Z,28.73
2022-12-11T19:13:46.671Z,24.17
2022-12-11T19:16:22.924Z,26.23
2022-12-11T19:18:50.382Z,24.77
2022-12-11T19:21:18.059Z,27.77
2022-12-11T19:23:45.506Z,21.55
2022-12-11T19:26:18.161Z,26.02
2022-12-11T19:28:45.413Z,24.80
2022-12-11T19:31:14.269Z,25.15
2022-12-11T19:33:42.134Z,22.83
2022-12-11T19:36:11.482Z,23.38
2022-12-11T19:38:39.874Z,22.90
2022-12-11T19:41:08.314Z,24.00
2022-12-11T19:43:36.662Z,23.58
2022-12-11T19:46:05.391Z,22.15
2022-12-11T19:48:32.585Z,22.70
2022-12-11T19:51:06.564Z,22.90
2022-12-11T19:53:34.592Z,24.67
2022-12-11T19:56:01.634Z,26.45
2022-12-11T19:58:28.575Z,23.33
2022-12-11T20:00:55.653Z,24.05
2022-12-11T20:03:22.647Z,24.33
2022-12-11T20:05:49.434Z,26.60
2022-12-11T20:11:04.884Z,29.17
2022-12-11T20:13:32.254Z,22.85
2022-12-11T20:15:59.789Z,21.15
2022-12-11T20:18:26.887Z,22.85
2022-12-11T20:20:53.545Z,23.35
2022-12-11T20:23:20.253Z,22.90
2022-12-11T20:25:46.971Z,21.95
2022-12-11T20:28:13.625Z,24.60
2022-12-11T20:30:40.290Z,24.83
2022-12-11T20:33:07.110Z,22.13
2022-12-11T20:35:33.976Z,20.80
2022-12-11T20:38:00.742Z,22.15
2022-12-11T20:40:27.466Z,24.85
2022-12-11T20:42:54.386Z,22.25
2022-12-11T20:45:21.109Z,25.58
2022-12-11T20:47:48.438Z,24.10
2022-12-11T20:50:15.151Z,22.45
2022-12-11T20:52:41.942Z,22.08
2022-12-11T20:55:09.652Z,27.60
2022-12-11T20:57:40.615Z,23.00
2022-12-11T21:00:12.209Z,23.70
2022-12-11T21:02:39.050Z,22.90
2022-12-11T21:05:06.126Z,26.10
2022-12-11T21:07:32.797Z,26.60
2022-12-11T21:09:59.493Z,30.05
2022-12-11T21:12:31.376Z,30.30
2022-12-11T21:14:58.513Z,24.00
2022-12-11T21:17:25.226Z,23.73
2022-12-11T21:19:51.890Z,24.95
2022-12-11T21:22:18.996Z,30.00
2022-12-11T21:24:45.846Z,38.72
2022-12-11T21:27:12.537Z,32.53
2022-12-11T21:29:39.199Z,32.35
2022-12-11T21:32:06.087Z,27.05
2022-12-11T21:34:32.868Z,22.13
2022-12-11T21:36:59.714Z,30.50
2022-12-11T21:39:28.478Z,28.10
2022-12-11T21:41:55.287Z,26.05
2022-12-11T21:47:08.920Z,23.10
2022-12-11T21:49:35.770Z,23.88
2022-12-11T21:52:02.999Z,22.77
2022-12-11T21:54:29.748Z,22.90
2022-12-11T21:56:56.929Z,24.52
2022-12-11T21:59:23.650Z,23.38
2022-12-11T22:01:50.499Z,25.02
2022-12-11T22:04:18.815Z,22.65
2022-12-11T22:06:47.249Z,24.45
2022-12-11T22:09:15.680Z,25.20
2022-12-11T22:11:43.387Z,27.80
2022-12-11T22:14:15.760Z,27.52
2022-12-11T22:16:43.316Z,20.92
2022-12-11T22:19:10.447Z,25.67
2022-12-11T22:21:37.454Z,25.90
2022-12-11T22:24:04.757Z,21.95
2022-12-11T22:26:31.621Z,21.05
2022-12-11T22:28:58.394Z,23.27
2022-12-11T22:31:26.722Z,22.92
2022-12-11T22:33:54.819Z,26.35
2022-12-11T22:36:23.142Z,22.95
2022-12-11T22:38:50.003Z,25.38
2022-12-11T22:41:29.171Z,23.58
2022-12-11T22:43:57.292Z,23.35
2022-12-11T22:46:26.860Z,24.50
2022-12-11T22:48:53.704Z,21.67
2022-12-11T22:51:20.780Z,22.30
2022-12-11T22:53:47.650Z,23.40
2022-12-11T22:56:14.976Z,27.58
2022-12-11T22:58:42.485Z,24.55
2022-12-11T23:01:12.379Z,22.42
2022-12-11T23:03:40.672Z,22.40
2022-12-11T23:06:11.051Z,23.38
2022-12-11T23:08:38.705Z,25.30
2022-12-11T23:11:13.340Z,21.15
2022-12-11T23:13:40.793Z,21.58
2022-12-11T23:16:09.108Z,24.73
2022-12-11T23:18:36.615Z,24.17
2022-12-11T23:21:03.782Z,22.95
2022-12-11T23:23:31.014Z,22.10
2022-12-11T23:25:58.190Z,29.67
2022-12-11T23:28:24.909Z,27.88
2022-12-11T23:30:51.876Z,25.83
2022-12-11T23:33:18.643Z,22.30
2022-12-11T23:35:45.442Z,22.73
2022-12-11T23:38:15.147Z,25.98
2022-12-11T23:40:42.018Z,27.13
2022-12-11T23:43:08.732Z,24.58
2022-12-11T23:45:35.415Z,25.17
2022-12-11T23:48:02.153Z,25.00
2022-12-11T23:50:31.140Z,26.83
2022-12-11T23:52:57.835Z,25.60
2022-12-11T23:55:25.336Z,26.23
2022-12-11T23:57:52.002Z,25.00
